Terminal Aerodrome Forecast
Issued by NWS

Home | Current Version | Previous Version | Graphics & Text | Print | Product List | Glossary On
Versions: 1 2 3 4 5 6 7 8 9 10 11 12 13 14 15 16 17 18
000
FTUS45 KGGW 242300 CCA
TAFSDY
TAF COR
KSDY 242327Z 2500/2524 VRB06KT P6SM VCSH OVC060
     FM250600 35007KT P6SM VCSH BKN023 BKN030
     FM251200 34011KT P6SM BKN017
      AMD LTD TO CLD VIS AND WIND=

USA.gov is the U.S. government's official web portal to all federal, state and local government web resources and services.